Mitsukawa Maru — JD2495 — position and weather

sailwx.info

Track history (hours):
 
Tides and Currents Weather Stations Pressure Air Temp Water Temp Dewpoint Dewpoint Depression Visibility Wind Speed Wind Dir Waves Ship Positions

Mitsukawa Maru

Last reported at 2017-Nov-19 09:08 UTC. Time now 2017-Nov-19 21:56 UTC.
Position N 34°46' E 139°11'.

Length 105 m; draft 4.3 m.

Type: Ship (hazmat cat A). MMSI: 431000326.

Date/timePositionNaut miles runAvg speedWind from/ knotsBaromVisibWave heightAir tempDewpointWater temp
2017-Nov-19 09:08N 34°46' E 139°11'1211.5
2017-Nov-19 08:05N 34°55' E 139°21'312.4
2017-Nov-19 07:53N 34°57' E 139°24'512.3
2017-Nov-19 07:28N 34°60' E 139°29'612.8
2017-Nov-19 06:59N 35°03' E 139°35'613.4
2017-Nov-19 06:30N 35°07' E 139°41'713.7
2017-Nov-19 06:01N 35°13' E 139°46'612.2
2017-Nov-19 05:31N 35°18' E 139°44'612.0
2017-Nov-19 05:01N 35°24' E 139°43'510.2
2017-Nov-19 04:31N 35°29' E 139°44'0 0.3
2017-Nov-19 04:00N 35°29' E 139°44'0 0.0
2017-Nov-19 03:30N 35°29' E 139°44'0 0.0
2017-Nov-19 02:57N 35°29' E 139°44'0 0.0
2017-Nov-19 02:30N 35°29' E 139°44'0 0.0
2017-Nov-19 02:00N 35°29' E 139°44'0 0.0
2017-Nov-19 01:30N 35°29' E 139°44'0 0.0
2017-Nov-19 01:00N 35°29' E 139°44'0 0.0
2017-Nov-19 00:30N 35°29' E 139°44'0 0.0
2017-Nov-19 00:00N 35°29' E 139°44'0 0.0
2017-Nov-18 23:30N 35°29' E 139°44'0 0.0
2017-Nov-18 22:54N 35°29' E 139°44'0 0.0
2017-Nov-18 22:30N 35°29' E 139°44'0 0.0
2017-Nov-18 21:57N 35°29' E 139°44'0 0.0
2017-Nov-18 21:30N 35°29' E 139°44'0 0.0
2017-Nov-18 20:54N 35°29' E 139°44'0 0.0
2017-Nov-18 20:24N 35°29' E 139°44'0 0.0
2017-Nov-18 19:57N 35°29' E 139°44'0 0.0
2017-Nov-18 19:30N 35°29' E 139°44'0 0.0
2017-Nov-18 18:57N 35°29' E 139°44'0 0.0
2017-Nov-18 18:30N 35°29' E 139°44'0 0.6
2017-Nov-18 18:01N 35°29' E 139°45'2 3.1
2017-Nov-18 17:31N 35°28' E 139°45'510.7
2017-Nov-18 17:01N 35°22' E 139°45'510.5
2017-Nov-18 16:31N 35°17' E 139°45'510.9
2017-Nov-18 16:00N 35°12' E 139°47'510.6
2017-Nov-18 15:31N 35°06' E 139°46'510.1
2017-Nov-18 15:00N 35°02' E 139°42'510.4
2017-Nov-18 14:31N 34°59' E 139°37'611.2
2017-Nov-18 14:01N 34°56' E 139°31'233 5.6
2017-Nov-16 20:15N 33°59' E 134°57'313.9
2017-Nov-16 20:00N 34°03' E 134°58'713.9
2017-Nov-16 19:30N 34°09' E 134°57'814.8
2017-Nov-16 18:58N 34°17' E 134°59'613.6
2017-Nov-16 18:30N 34°24' E 134°60'713.6
2017-Nov-16 17:59N 34°31' E 135°02'612.5
2017-Nov-16 17:30N 34°37' E 135°02'714.0
2017-Nov-16 17:00N 34°35' E 134°53'  
2017-Nov-12 06:21N 34°57' E 139°26'513.1
2017-Nov-12 06:00N 35°00' E 139°30'713.4
2017-Nov-12 05:30N 35°04' E 139°37'713.3
2017-Nov-12 05:00N 35°08' E 139°43'612.8
2017-Nov-12 04:30N 35°14' E 139°46'612.5
2017-Nov-12 04:00N 35°20' E 139°43'612.7
2017-Nov-12 03:31N 35°26' E 139°44'714.1
2017-Nov-12 03:00N 35°30' E 139°51'7 0.2
2017-Nov-10 18:27N 35°34' E 139°58'612.7
2017-Nov-10 18:00N 35°30' E 139°53'612.5
2017-Nov-10 17:31N 35°26' E 139°48'612.0
2017-Nov-10 17:01N 35°20' E 139°45'510.7
2017-Nov-10 16:31N 35°15' E 139°47'611.8
2017-Nov-10 16:01N 35°09' E 139°46'612.0
2017-Nov-10 15:31N 35°04' E 139°44'712.9
2017-Nov-10 15:00N 34°60' E 139°37'  
Track history (hours):
 
Tides and Currents Weather Stations Pressure Air Temp Water Temp Dewpoint Dewpoint Depression Visibility Wind Speed Wind Dir Waves Ship Positions

Mitsukawa Maru

Last reported at 2017-Nov-19 09:08 UTC. Time now 2017-Nov-19 21:56 UTC.
Position N 34°46' E 139°11'.

Length 105 m; draft 4.3 m.

Type: Ship (hazmat cat A). MMSI: 431000326.

Date/timePositionNaut miles runAvg speedWind from/ knotsBaromVisibWave heightAir tempDewpointWater temp
2017-Nov-19 09:08N 34°46' E 139°11'1211.5
2017-Nov-19 08:05N 34°55' E 139°21'312.4
2017-Nov-19 07:53N 34°57' E 139°24'512.3
2017-Nov-19 07:28N 34°60' E 139°29'612.8
2017-Nov-19 06:59N 35°03' E 139°35'613.4
2017-Nov-19 06:30N 35°07' E 139°41'713.7
2017-Nov-19 06:01N 35°13' E 139°46'612.2
2017-Nov-19 05:31N 35°18' E 139°44'612.0
2017-Nov-19 05:01N 35°24' E 139°43'510.2
2017-Nov-19 04:31N 35°29' E 139°44'0 0.3
2017-Nov-19 04:00N 35°29' E 139°44'0 0.0
2017-Nov-19 03:30N 35°29' E 139°44'0 0.0
2017-Nov-19 02:57N 35°29' E 139°44'0 0.0
2017-Nov-19 02:30N 35°29' E 139°44'0 0.0
2017-Nov-19 02:00N 35°29' E 139°44'0 0.0
2017-Nov-19 01:30N 35°29' E 139°44'0 0.0
2017-Nov-19 01:00N 35°29' E 139°44'0 0.0
2017-Nov-19 00:30N 35°29' E 139°44'0 0.0
2017-Nov-19 00:00N 35°29' E 139°44'0 0.0
2017-Nov-18 23:30N 35°29' E 139°44'0 0.0
2017-Nov-18 22:54N 35°29' E 139°44'0 0.0
2017-Nov-18 22:30N 35°29' E 139°44'0 0.0
2017-Nov-18 21:57N 35°29' E 139°44'0 0.0
2017-Nov-18 21:30N 35°29' E 139°44'0 0.0
2017-Nov-18 20:54N 35°29' E 139°44'0 0.0
2017-Nov-18 20:24N 35°29' E 139°44'0 0.0
2017-Nov-18 19:57N 35°29' E 139°44'0 0.0
2017-Nov-18 19:30N 35°29' E 139°44'0 0.0
2017-Nov-18 18:57N 35°29' E 139°44'0 0.0
2017-Nov-18 18:30N 35°29' E 139°44'0 0.6
2017-Nov-18 18:01N 35°29' E 139°45'2 3.1
2017-Nov-18 17:31N 35°28' E 139°45'510.7
2017-Nov-18 17:01N 35°22' E 139°45'510.5
2017-Nov-18 16:31N 35°17' E 139°45'510.9
2017-Nov-18 16:00N 35°12' E 139°47'510.6
2017-Nov-18 15:31N 35°06' E 139°46'510.1
2017-Nov-18 15:00N 35°02' E 139°42'510.4
2017-Nov-18 14:31N 34°59' E 139°37'611.2
2017-Nov-18 14:01N 34°56' E 139°31'233 5.6
2017-Nov-16 20:15N 33°59' E 134°57'313.9
2017-Nov-16 20:00N 34°03' E 134°58'713.9
2017-Nov-16 19:30N 34°09' E 134°57'814.8
2017-Nov-16 18:58N 34°17' E 134°59'613.6
2017-Nov-16 18:30N 34°24' E 134°60'713.6
2017-Nov-16 17:59N 34°31' E 135°02'612.5
2017-Nov-16 17:30N 34°37' E 135°02'714.0
2017-Nov-16 17:00N 34°35' E 134°53'  
2017-Nov-12 06:21N 34°57' E 139°26'513.1
2017-Nov-12 06:00N 35°00' E 139°30'713.4
2017-Nov-12 05:30N 35°04' E 139°37'713.3
2017-Nov-12 05:00N 35°08' E 139°43'612.8
2017-Nov-12 04:30N 35°14' E 139°46'612.5
2017-Nov-12 04:00N 35°20' E 139°43'612.7
2017-Nov-12 03:31N 35°26' E 139°44'714.1
2017-Nov-12 03:00N 35°30' E 139°51'7 0.2
2017-Nov-10 18:27N 35°34' E 139°58'612.7
2017-Nov-10 18:00N 35°30' E 139°53'612.5
2017-Nov-10 17:31N 35°26' E 139°48'612.0
2017-Nov-10 17:01N 35°20' E 139°45'510.7
2017-Nov-10 16:31N 35°15' E 139°47'611.8
2017-Nov-10 16:01N 35°09' E 139°46'612.0
2017-Nov-10 15:31N 35°04' E 139°44'712.9
2017-Nov-10 15:00N 34°60' E 139°37'  

Dump ship's entire track history